createdAt,value
2022-10-12T00:04:48.960Z,12.80
2022-10-12T00:09:51.214Z,12.50
2022-10-12T00:14:53.234Z,13.02
2022-10-12T00:19:55.239Z,15.90
2022-10-12T00:24:57.227Z,14.52
2022-10-12T00:29:59.290Z,11.52
2022-10-12T00:35:01.491Z,12.60
2022-10-12T00:40:03.768Z,11.85
2022-10-12T00:45:06.279Z,15.98
2022-10-12T00:50:17.608Z,11.18
2022-10-12T00:55:22.092Z,10.85
2022-10-12T01:00:24.225Z,13.90
2022-10-12T01:05:26.765Z,14.55
2022-10-12T01:10:28.779Z,11.30
2022-10-12T01:15:40.615Z,11.88
2022-10-12T01:21:01.291Z,10.73
2022-10-12T01:26:31.624Z,10.27
2022-10-12T01:31:44.396Z,13.00
2022-10-12T01:36:54.668Z,9.32
2022-10-12T01:42:02.917Z,10.20
2022-10-12T01:47:04.966Z,13.82
2022-10-12T01:52:21.172Z,11.75
2022-10-12T01:58:00.956Z,11.07
2022-10-12T02:03:14.169Z,16.48
2022-10-12T02:08:35.990Z,15.95
2022-10-12T02:14:01.434Z,14.52
2022-10-12T02:19:07.485Z,10.80
2022-10-12T02:24:10.305Z,14.85
2022-10-12T02:29:17.502Z,9.07
2022-10-12T02:34:29.236Z,13.85
2022-10-12T02:39:38.772Z,15.98
2022-10-12T02:44:43.337Z,11.32
2022-10-12T02:49:46.575Z,11.45
2022-10-12T02:54:48.544Z,10.82
2022-10-12T02:59:50.684Z,11.02
2022-10-12T03:04:52.662Z,15.55
2022-10-12T03:09:54.703Z,15.38
2022-10-12T03:14:56.678Z,15.55
2022-10-12T03:19:58.698Z,17.98
2022-10-12T03:25:00.678Z,13.70
2022-10-12T03:30:02.998Z,18.63
2022-10-12T03:35:05.376Z,14.02
2022-10-12T03:40:08.224Z,11.43
2022-10-12T03:45:10.368Z,12.43
2022-10-12T03:50:12.596Z,15.00
2022-10-12T03:55:14.682Z,16.88
2022-10-12T04:00:17.048Z,13.98
2022-10-12T04:05:19.071Z,10.82
2022-10-12T04:10:21.157Z,15.45
2022-10-12T04:20:30.442Z,12.68
2022-10-12T04:25:32.468Z,14.52
2022-10-12T04:30:34.527Z,14.70
2022-10-12T04:35:36.521Z,11.63
2022-10-12T04:40:38.884Z,11.68
2022-10-12T04:45:40.901Z,14.75
2022-10-12T04:50:43.036Z,10.82
2022-10-12T04:55:44.990Z,12.98
2022-10-12T05:00:49.059Z,10.75
2022-10-12T05:05:52.483Z,12.93
2022-10-12T05:10:58.040Z,10.50
2022-10-12T05:16:00.102Z,13.85
2022-10-12T05:21:02.195Z,15.15
2022-10-12T05:26:04.292Z,10.93
2022-10-12T05:31:06.294Z,14.48
2022-10-12T05:36:08.800Z,21.00
2022-10-12T05:41:10.811Z,13.38
2022-10-12T05:46:14.529Z,18.70
2022-10-12T05:51:16.719Z,16.23
2022-10-12T05:56:19.082Z,14.00
2022-10-12T06:01:21.179Z,16.38
2022-10-12T06:06:23.389Z,13.48
2022-10-12T06:11:25.971Z,19.65
2022-10-12T06:16:28.123Z,17.52
2022-10-12T06:21:34.334Z,11.43
2022-10-12T06:26:36.777Z,16.38
2022-10-12T06:31:39.858Z,17.40
2022-10-12T06:36:42.091Z,17.65
2022-10-12T06:41:44.120Z,18.02
2022-10-12T06:46:46.584Z,17.42
2022-10-12T06:51:48.539Z,13.82
2022-10-12T06:56:51.856Z,20.85
2022-10-12T07:01:55.374Z,26.33
2022-10-12T07:06:57.488Z,17.73
2022-10-12T07:11:59.535Z,24.13
2022-10-12T07:17:01.529Z,25.00
2022-10-12T07:22:03.493Z,18.17
2022-10-12T07:27:08.628Z,14.00
2022-10-12T07:32:10.607Z,18.90
2022-10-12T07:37:13.221Z,20.52
2022-10-12T07:42:19.124Z,16.45
2022-10-12T07:47:21.623Z,21.70
2022-10-12T07:52:23.659Z,22.92
2022-10-12T07:57:25.668Z,28.75
2022-10-12T08:02:27.988Z,29.95
2022-10-12T08:07:29.977Z,30.08
2022-10-12T08:12:31.975Z,30.88
2022-10-12T08:17:33.965Z,32.13
2022-10-12T08:22:36.027Z,30.58
2022-10-12T08:27:38.628Z,35.45
2022-10-12T08:32:40.799Z,43.90
2022-10-12T08:37:42.751Z,42.22
2022-10-12T08:42:56.467Z,40.88
2022-10-12T08:48:20.472Z,42.15
2022-10-12T08:53:33.004Z,42.47
2022-10-12T08:58:37.811Z,32.63
2022-10-12T09:04:04.867Z,38.67
2022-10-12T09:09:30.419Z,39.60
2022-10-12T09:14:36.076Z,43.50
2022-10-12T09:19:42.306Z,29.58
2022-10-12T09:24:46.509Z,32.92
2022-10-12T09:29:56.855Z,30.52
2022-10-12T09:34:59.568Z,26.90
2022-10-12T09:40:02.032Z,30.30
2022-10-12T09:45:20.084Z,27.20
2022-10-12T09:50:39.812Z,27.17
2022-10-12T09:55:52.825Z,24.23
2022-10-12T10:01:19.391Z,26.30
2022-10-12T10:06:25.725Z,23.20
2022-10-12T10:11:31.524Z,21.20
2022-10-12T10:16:33.594Z,20.15
2022-10-12T10:21:38.134Z,17.75
2022-10-12T10:26:57.600Z,20.77
2022-10-12T10:32:23.954Z,16.48
2022-10-12T10:37:26.100Z,22.08
2022-10-12T10:42:31.812Z,22.48
2022-10-12T10:47:42.129Z,14.60
2022-10-12T10:52:55.077Z,17.37
2022-10-12T10:58:16.289Z,15.73
2022-10-12T11:03:29.473Z,13.00
2022-10-12T11:08:34.652Z,11.70
2022-10-12T11:14:09.500Z,14.95
2022-10-12T11:19:22.972Z,13.73
2022-10-12T11:24:43.271Z,14.88
2022-10-12T11:29:57.976Z,11.68
2022-10-12T11:35:13.699Z,14.75
2022-10-12T11:40:41.261Z,12.43
2022-10-12T11:45:49.546Z,13.27
2022-10-12T11:50:51.870Z,8.85
2022-10-12T11:56:05.674Z,14.55
2022-10-12T12:01:26.090Z,14.48
2022-10-12T12:11:33.921Z,7.75
2022-10-12T12:16:42.704Z,12.45
2022-10-12T12:22:15.597Z,12.32
2022-10-12T12:27:36.804Z,10.85
2022-10-12T12:32:46.986Z,12.73
2022-10-12T12:37:50.105Z,11.90
2022-10-12T12:42:52.129Z,12.68
2022-10-12T12:47:54.159Z,13.75
2022-10-12T12:53:12.640Z,9.00
2022-10-12T12:58:36.540Z,10.25
2022-10-12T13:04:09.323Z,8.35
2022-10-12T13:09:20.008Z,11.27
2022-10-12T13:14:49.145Z,9.77
2022-10-12T13:19:54.589Z,9.15
2022-10-12T13:25:04.261Z,10.90
2022-10-12T13:30:21.380Z,9.13
2022-10-12T13:35:30.161Z,7.65
2022-10-12T13:40:38.628Z,10.98
2022-10-12T13:45:45.879Z,10.35
2022-10-12T13:50:56.217Z,11.55
2022-10-12T13:56:05.161Z,12.33
2022-10-12T14:01:09.915Z,9.05
2022-10-12T14:06:30.987Z,9.50
2022-10-12T14:11:34.340Z,10.18
2022-10-12T14:16:36.359Z,7.88
2022-10-12T14:21:44.640Z,6.95
2022-10-12T14:26:54.402Z,9.02
2022-10-12T14:31:59.187Z,9.43
2022-10-12T14:37:13.150Z,10.77
2022-10-12T14:42:36.046Z,11.18
2022-10-12T14:47:40.125Z,14.88
2022-10-12T14:52:42.158Z,10.25
2022-10-12T14:57:44.731Z,9.90
2022-10-12T15:02:47.501Z,10.27
2022-10-12T15:07:50.302Z,11.43
2022-10-12T15:12:53.187Z,11.32
2022-10-12T15:17:55.316Z,12.65
2022-10-12T15:22:59.094Z,11.20
2022-10-12T15:28:02.557Z,16.05
2022-10-12T15:33:04.606Z,10.25
2022-10-12T15:38:07.061Z,13.90
2022-10-12T15:43:10.357Z,13.75
2022-10-12T15:48:12.509Z,11.48
2022-10-12T15:53:25.495Z,9.10
2022-10-12T15:58:27.541Z,14.55
2022-10-12T16:03:31.607Z,12.88
2022-10-12T16:08:33.736Z,12.75
2022-10-12T16:13:38.367Z,13.52
2022-10-12T16:18:45.236Z,13.70
2022-10-12T16:23:47.237Z,8.52
2022-10-12T16:28:49.546Z,11.57
2022-10-12T16:33:51.753Z,11.50
2022-10-12T16:38:54.323Z,13.80
2022-10-12T16:43:56.487Z,10.93
2022-10-12T16:48:58.541Z,11.45
2022-10-12T16:54:00.903Z,13.52
2022-10-12T16:59:03.340Z,9.27
2022-10-12T17:04:05.442Z,13.30
2022-10-12T17:09:08.800Z,11.77
2022-10-12T17:14:14.255Z,15.40
2022-10-12T17:19:20.697Z,10.73
2022-10-12T17:24:24.578Z,7.90
2022-10-12T17:29:28.983Z,12.65
2022-10-12T17:34:36.609Z,13.15
2022-10-12T17:39:43.222Z,13.55
2022-10-12T17:44:45.194Z,12.02
2022-10-12T17:49:47.175Z,12.65
2022-10-12T17:54:49.201Z,18.80
2022-10-12T17:59:51.275Z,17.38
2022-10-12T18:04:53.366Z,11.35
2022-10-12T18:09:55.465Z,13.68
2022-10-12T18:14:57.570Z,11.80
2022-10-12T18:19:59.946Z,11.70
2022-10-12T18:25:02.305Z,15.40
2022-10-12T18:30:04.995Z,14.13
2022-10-12T18:35:07.471Z,15.57
2022-10-12T18:40:10.548Z,13.00
2022-10-12T18:45:13.949Z,14.57
2022-10-12T18:50:16.123Z,17.58
2022-10-12T18:55:18.136Z,15.65
2022-10-12T19:00:20.183Z,14.65
2022-10-12T19:05:22.224Z,21.33
2022-10-12T19:10:24.227Z,18.13
2022-10-12T19:15:28.441Z,19.02
2022-10-12T19:20:32.417Z,21.38
2022-10-12T19:25:38.073Z,22.65
2022-10-12T19:30:40.104Z,19.85
2022-10-12T19:35:42.148Z,17.83
2022-10-12T19:40:51.917Z,19.20
2022-10-12T19:45:54.039Z,20.05
2022-10-12T19:51:03.381Z,19.65
2022-10-12T19:56:11.203Z,18.10
2022-10-12T20:01:22.395Z,18.92
2022-10-12T20:11:35.055Z,19.45
2022-10-12T20:16:37.531Z,17.23
2022-10-12T20:21:39.608Z,19.42
2022-10-12T20:26:42.212Z,19.17
2022-10-12T20:31:44.280Z,19.30
2022-10-12T20:36:46.316Z,17.58
2022-10-12T20:41:48.387Z,18.75
2022-10-12T20:46:50.459Z,22.00
2022-10-12T20:51:52.428Z,17.00
2022-10-12T20:56:54.434Z,19.20
2022-10-12T21:01:56.500Z,17.98
2022-10-12T21:06:58.560Z,20.38
2022-10-12T21:12:00.555Z,16.67
2022-10-12T21:17:05.573Z,27.50
2022-10-12T21:22:07.608Z,17.02
2022-10-12T21:27:09.733Z,24.58
2022-10-12T21:32:11.752Z,19.27
2022-10-12T21:37:13.876Z,25.40
2022-10-12T21:42:16.264Z,22.02
2022-10-12T21:47:18.608Z,27.45
2022-10-12T21:52:20.893Z,17.55
2022-10-12T21:57:23.054Z,20.30
2022-10-12T22:02:25.123Z,20.08
2022-10-12T22:07:27.125Z,23.60
2022-10-12T22:12:30.090Z,17.77
2022-10-12T22:17:32.191Z,20.05
2022-10-12T22:22:34.197Z,19.20
2022-10-12T22:27:36.186Z,27.85
2022-10-12T22:32:38.168Z,20.00
2022-10-12T22:37:40.163Z,22.92
2022-10-12T22:42:42.145Z,24.77
2022-10-12T22:47:44.099Z,25.58
2022-10-12T22:52:46.084Z,17.83
2022-10-12T22:57:48.073Z,21.25
2022-10-12T23:02:50.040Z,21.98
2022-10-12T23:07:52.062Z,21.45
2022-10-12T23:12:54.171Z,22.17
2022-10-12T23:17:56.142Z,22.20
2022-10-12T23:22:58.169Z,22.88
2022-10-12T23:28:00.241Z,20.55
2022-10-12T23:33:02.195Z,20.20
2022-10-12T23:38:04.285Z,22.33
2022-10-12T23:43:06.333Z,18.58
2022-10-12T23:48:08.301Z,19.50
2022-10-12T23:53:12.000Z,19.33
2022-10-12T23:58:14.038Z,23.30
